createdAt,value
2019-02-05T00:01:34.074Z,56.09
2019-02-05T00:03:35.170Z,56.32
2019-02-05T00:05:36.788Z,55.58
2019-02-05T00:07:38.376Z,55.18
2019-02-05T00:09:40.030Z,55.10
2019-02-05T00:11:41.700Z,55.06
2019-02-05T00:13:43.317Z,55.02
2019-02-05T00:15:44.972Z,55.08
2019-02-05T00:17:46.588Z,54.99
2019-02-05T00:19:48.175Z,55.11
2019-02-05T00:21:49.815Z,55.12
2019-02-05T00:23:51.421Z,55.12
2019-02-05T00:25:53.025Z,55.24
2019-02-05T00:27:54.653Z,55.01
2019-02-05T00:29:56.279Z,55.23
2019-02-05T00:31:57.922Z,55.31
2019-02-05T00:33:59.521Z,55.52
2019-02-05T00:36:01.121Z,55.90
2019-02-05T00:38:02.803Z,56.04
2019-02-05T00:40:04.409Z,55.95
2019-02-05T00:42:06.053Z,56.24
2019-02-05T00:44:07.653Z,56.31
2019-02-05T00:46:09.254Z,56.47
2019-02-05T00:48:10.891Z,56.77
2019-02-05T00:50:12.495Z,56.75
2019-02-05T00:52:14.158Z,56.97
2019-02-05T00:54:15.762Z,57.00
2019-02-05T00:56:17.957Z,57.56
2019-02-05T00:58:19.041Z,57.61
2019-02-05T01:00:20.670Z,57.70
2019-02-05T01:02:22.370Z,57.92
2019-02-05T01:04:24.031Z,57.61
2019-02-05T01:06:25.640Z,57.86
2019-02-05T01:08:27.237Z,57.83
2019-02-05T01:10:28.892Z,57.83
2019-02-05T01:12:30.565Z,58.34
2019-02-05T01:14:32.179Z,58.49
2019-02-05T01:16:33.783Z,58.77
2019-02-05T01:18:35.385Z,58.51
2019-02-05T01:20:37.046Z,58.39
2019-02-05T01:22:38.672Z,58.25
2019-02-05T01:24:40.379Z,58.24
2019-02-05T01:26:41.952Z,58.25
2019-02-05T01:28:43.575Z,58.25
2019-02-05T01:30:45.236Z,58.42
2019-02-05T01:32:46.881Z,58.29
2019-02-05T01:34:48.495Z,58.10
2019-02-05T01:36:50.097Z,57.93
2019-02-05T01:38:51.793Z,57.82
2019-02-05T01:40:53.407Z,57.75
2019-02-05T01:42:55.017Z,57.35
2019-02-05T01:44:56.649Z,57.11
2019-02-05T01:46:58.307Z,57.06
2019-02-05T01:48:59.993Z,56.90
2019-02-05T01:51:01.558Z,56.78
2019-02-05T01:53:03.191Z,56.49
2019-02-05T01:55:04.801Z,56.41
2019-02-05T01:57:06.418Z,56.43
2019-02-05T01:59:08.050Z,56.37
2019-02-05T02:01:09.668Z,56.39
2019-02-05T02:03:11.376Z,56.40
2019-02-05T02:05:13.039Z,56.20
2019-02-05T02:07:14.690Z,56.37
2019-02-05T02:09:16.289Z,56.42
2019-02-05T02:11:17.890Z,56.52
2019-02-05T02:13:19.542Z,56.87
2019-02-05T02:15:21.135Z,56.88
2019-02-05T02:17:22.735Z,57.22
2019-02-05T02:19:24.375Z,57.02
2019-02-05T02:21:25.981Z,57.23
2019-02-05T02:23:27.708Z,57.09
2019-02-05T02:25:29.240Z,57.07
2019-02-05T02:27:30.842Z,56.91
2019-02-05T02:29:32.456Z,56.90
2019-02-05T02:31:34.058Z,57.10
2019-02-05T02:33:35.661Z,57.21
2019-02-05T02:35:37.273Z,57.31
2019-02-05T02:37:38.917Z,57.33
2019-02-05T02:39:40.574Z,57.46
2019-02-05T02:41:42.175Z,57.52
2019-02-05T02:43:43.781Z,57.38
2019-02-05T02:45:45.385Z,57.31
2019-02-05T02:47:47.039Z,57.12
2019-02-05T02:49:48.756Z,56.89
2019-02-05T02:51:50.348Z,56.77
2019-02-05T02:53:51.959Z,56.78
2019-02-05T02:55:53.582Z,56.44
2019-02-05T02:57:55.251Z,56.29
2019-02-05T02:59:56.854Z,56.20
2019-02-05T03:01:58.452Z,56.21
2019-02-05T03:04:00.048Z,56.19
2019-02-05T03:06:01.667Z,56.17
2019-02-05T03:08:03.275Z,56.34
2019-02-05T03:10:04.877Z,56.58
2019-02-05T03:12:06.500Z,56.80
2019-02-05T03:14:08.133Z,56.79
2019-02-05T03:16:09.757Z,57.03
2019-02-05T03:18:11.394Z,57.12
2019-02-05T03:20:13.016Z,57.07
2019-02-05T03:22:14.625Z,57.06
2019-02-05T03:24:16.287Z,57.02
2019-02-05T03:26:17.944Z,56.98
2019-02-05T03:28:19.556Z,56.92
2019-02-05T03:30:21.227Z,57.06
2019-02-05T03:32:22.842Z,56.70
2019-02-05T03:34:24.473Z,55.61
2019-02-05T03:36:26.122Z,54.88
2019-02-05T03:38:27.740Z,54.59
2019-02-05T03:40:29.380Z,54.48
2019-02-05T03:42:30.997Z,54.35
2019-02-05T03:44:32.614Z,54.03
2019-02-05T03:46:34.268Z,53.68
2019-02-05T03:48:35.901Z,52.91
2019-02-05T03:50:37.527Z,53.24
2019-02-05T03:52:39.177Z,52.96
2019-02-05T03:54:40.821Z,52.58
2019-02-05T03:56:42.440Z,52.17
2019-02-05T03:58:44.065Z,51.04
2019-02-05T04:00:45.704Z,49.83
2019-02-05T04:02:47.406Z,49.59
2019-02-05T04:04:49.013Z,49.76
2019-02-05T04:06:50.670Z,49.92
2019-02-05T04:08:52.310Z,50.34
2019-02-05T04:10:53.925Z,50.64
2019-02-05T04:12:55.569Z,50.80
2019-02-05T04:14:57.181Z,51.00
2019-02-05T04:16:58.786Z,51.16
2019-02-05T04:19:00.470Z,51.31
2019-02-05T04:21:02.089Z,51.49
2019-02-05T04:23:03.715Z,51.65
2019-02-05T04:25:05.352Z,51.77
2019-02-05T04:27:07.002Z,51.91
2019-02-05T04:29:08.636Z,52.04
2019-02-05T04:31:10.289Z,52.16
2019-02-05T04:33:11.934Z,52.26
2019-02-05T04:35:13.537Z,52.30
2019-02-05T04:37:15.162Z,52.37
2019-02-05T04:39:16.794Z,52.47
2019-02-05T04:41:18.393Z,52.53
2019-02-05T04:43:19.988Z,52.51
2019-02-05T04:45:33.381Z,52.56
2019-02-05T04:47:23.236Z,52.59
2019-02-05T04:49:24.846Z,52.64
2019-02-05T04:51:26.503Z,52.68
2019-02-05T04:53:28.110Z,52.71
2019-02-05T04:55:29.728Z,52.76
2019-02-05T04:57:31.382Z,52.77
2019-02-05T04:59:32.980Z,52.80
2019-02-05T05:01:34.659Z,52.78
2019-02-05T05:03:36.289Z,52.78
2019-02-05T05:05:37.927Z,52.80
2019-02-05T05:07:39.530Z,52.88
2019-02-05T05:09:41.293Z,52.90
2019-02-05T05:11:43.017Z,52.99
2019-02-05T05:13:44.492Z,53.08
2019-02-05T05:15:46.099Z,53.18
2019-02-05T05:17:47.746Z,53.29
2019-02-05T05:19:49.368Z,53.35
2019-02-05T05:21:50.993Z,53.45
2019-02-05T05:23:52.625Z,53.44
2019-02-05T05:25:54.242Z,53.37
2019-02-05T05:27:55.861Z,53.41
2019-02-05T05:29:57.494Z,53.40
2019-02-05T05:31:59.115Z,53.32
2019-02-05T05:34:00.727Z,53.22
2019-02-05T05:36:02.343Z,53.15
2019-02-05T05:38:03.963Z,53.02
2019-02-05T05:40:05.583Z,52.90
2019-02-05T05:42:07.232Z,52.74
2019-02-05T05:44:09.588Z,52.63
2019-02-05T05:46:10.489Z,52.40
2019-02-05T05:48:12.113Z,52.22
2019-02-05T05:50:13.709Z,52.03
2019-02-05T05:52:15.344Z,51.85
2019-02-05T05:54:16.939Z,51.68
2019-02-05T05:56:18.558Z,51.58
2019-02-05T05:58:23.031Z,51.47
2019-02-05T06:00:21.833Z,51.45
2019-02-05T06:02:23.478Z,51.44
2019-02-05T06:04:25.093Z,51.41
2019-02-05T06:06:26.693Z,51.44
2019-02-05T06:08:28.337Z,51.54
2019-02-05T06:10:29.985Z,51.56
2019-02-05T06:12:31.581Z,51.65
2019-02-05T06:14:33.224Z,51.69
2019-02-05T06:16:34.839Z,51.76
2019-02-05T06:18:36.458Z,51.85
2019-02-05T06:20:38.063Z,51.85
2019-02-05T06:22:39.681Z,51.91
2019-02-05T06:24:41.367Z,51.96
2019-02-05T06:26:42.982Z,51.99
2019-02-05T06:28:44.589Z,52.05
2019-02-05T06:30:46.191Z,52.06
2019-02-05T06:32:47.895Z,52.12
2019-02-05T06:34:49.502Z,52.11
2019-02-05T06:36:51.106Z,52.10
2019-02-05T06:38:52.754Z,52.13
2019-02-05T06:40:54.420Z,52.15
2019-02-05T06:42:56.019Z,52.18
2019-02-05T06:44:57.625Z,52.16
2019-02-05T06:46:59.246Z,52.18
2019-02-05T06:49:01.081Z,52.20
2019-02-05T06:51:02.759Z,52.21
2019-02-05T06:53:04.385Z,52.22
2019-02-05T06:55:05.997Z,52.20
2019-02-05T06:57:07.655Z,52.21
2019-02-05T06:59:09.267Z,52.21
2019-02-05T07:01:10.876Z,52.19
2019-02-05T07:03:12.495Z,52.15
2019-02-05T07:05:14.353Z,52.15
2019-02-05T07:07:20.484Z,52.14
2019-02-05T07:09:22.433Z,52.19
2019-02-05T07:11:24.386Z,52.16
2019-02-05T07:13:26.041Z,52.19
2019-02-05T07:15:27.642Z,52.16
2019-02-05T07:17:29.245Z,52.16
2019-02-05T07:19:30.884Z,52.09
2019-02-05T07:21:32.540Z,52.03
2019-02-05T07:23:34.202Z,51.95
2019-02-05T07:25:35.952Z,51.90
2019-02-05T07:27:37.570Z,51.72
2019-02-05T07:29:39.173Z,51.57
2019-02-05T07:31:40.821Z,51.44
2019-02-05T07:33:42.450Z,51.34
2019-02-05T07:35:44.074Z,51.22
2019-02-05T07:37:45.742Z,51.13
2019-02-05T07:39:47.391Z,51.02
2019-02-05T07:41:49.019Z,51.04
2019-02-05T07:43:50.678Z,51.00
2019-02-05T07:45:52.292Z,51.03
2019-02-05T07:47:53.898Z,51.03
2019-02-05T07:49:55.553Z,51.04
2019-02-05T07:51:57.176Z,51.06
2019-02-05T07:53:58.854Z,51.09
2019-02-05T07:56:00.482Z,51.08
2019-02-05T07:58:02.090Z,51.11
2019-02-05T08:00:03.712Z,51.13
2019-02-05T08:02:05.344Z,51.12
2019-02-05T08:04:06.981Z,51.10
2019-02-05T08:06:08.612Z,51.13
2019-02-05T08:08:10.221Z,51.12
2019-02-05T08:10:11.841Z,51.13
2019-02-05T08:12:13.461Z,51.15
2019-02-05T08:14:15.073Z,51.15
2019-02-05T08:16:16.738Z,51.17
2019-02-05T08:18:18.392Z,51.12
2019-02-05T08:20:20.055Z,51.15
2019-02-05T08:22:21.728Z,51.07
2019-02-05T08:24:23.342Z,51.07
2019-02-05T08:26:24.990Z,51.03
2019-02-05T08:28:26.631Z,51.04
2019-02-05T08:30:28.250Z,51.03
2019-02-05T08:32:29.873Z,50.96
2019-02-05T08:34:31.520Z,50.99
2019-02-05T08:36:33.127Z,50.90
2019-02-05T08:38:34.763Z,50.89
2019-02-05T08:40:36.393Z,50.84
2019-02-05T08:42:38.049Z,50.80
2019-02-05T08:44:39.680Z,50.76
2019-02-05T08:46:41.329Z,50.70
2019-02-05T08:48:42.952Z,50.68
2019-02-05T08:50:44.658Z,50.58
2019-02-05T08:52:46.265Z,50.47
2019-02-05T08:54:47.869Z,50.36
2019-02-05T08:56:49.488Z,50.21
2019-02-05T08:58:51.172Z,50.03
2019-02-05T09:00:52.778Z,49.87
2019-02-05T09:02:54.400Z,49.69
2019-02-05T09:04:56.013Z,49.59
2019-02-05T09:06:57.666Z,49.46
2019-02-05T09:08:59.289Z,49.44
2019-02-05T09:11:01.026Z,49.41
2019-02-05T09:13:02.668Z,49.52
2019-02-05T09:15:04.325Z,49.64
2019-02-05T09:17:05.971Z,49.73
2019-02-05T09:19:07.575Z,49.75
2019-02-05T09:21:09.211Z,49.86
2019-02-05T09:23:13.987Z,49.93
2019-02-05T09:25:12.550Z,50.05
2019-02-05T09:27:14.166Z,50.10
2019-02-05T09:29:15.840Z,50.16
2019-02-05T09:31:17.625Z,50.23
2019-02-05T09:33:19.224Z,50.28
2019-02-05T09:35:20.852Z,50.30
2019-02-05T09:37:22.462Z,50.40
2019-02-05T09:39:24.113Z,50.38
2019-02-05T09:41:25.775Z,50.43
2019-02-05T09:43:27.405Z,50.46
2019-02-05T09:45:29.049Z,50.46
2019-02-05T09:47:30.705Z,50.39
2019-02-05T09:49:32.327Z,50.27
2019-02-05T09:51:33.990Z,50.13
2019-02-05T09:53:35.597Z,50.05
2019-02-05T09:55:37.305Z,49.99
2019-02-05T09:57:38.940Z,49.86
2019-02-05T09:59:45.299Z,49.83
2019-02-05T10:01:42.250Z,49.80
2019-02-05T10:03:43.908Z,49.87
2019-02-05T10:05:45.517Z,49.81
2019-02-05T10:07:47.135Z,49.82
2019-02-05T10:09:48.742Z,49.83
2019-02-05T10:11:50.346Z,49.88
2019-02-05T10:13:51.985Z,49.96
2019-02-05T10:15:53.624Z,50.02
2019-02-05T10:17:55.248Z,50.08
2019-02-05T10:19:56.915Z,50.06
2019-02-05T10:21:58.528Z,50.12
2019-02-05T10:24:00.133Z,50.08
2019-02-05T10:26:01.788Z,50.05
2019-02-05T10:28:03.409Z,49.81
2019-02-05T10:30:05.027Z,49.68
2019-02-05T10:32:06.772Z,49.67
2019-02-05T10:34:08.345Z,49.67
2019-02-05T10:36:09.954Z,49.72
2019-02-05T10:38:11.569Z,49.70
2019-02-05T10:40:13.213Z,49.72
2019-02-05T10:42:14.853Z,49.74
2019-02-05T10:44:16.511Z,49.73
2019-02-05T10:46:18.127Z,49.79
2019-02-05T10:48:19.763Z,49.82
2019-02-05T10:50:21.379Z,49.82
2019-02-05T10:52:22.994Z,49.92
2019-02-05T10:54:24.610Z,49.98
2019-02-05T10:56:26.217Z,50.09
2019-02-05T10:58:27.863Z,50.17
2019-02-05T11:00:29.467Z,50.26
2019-02-05T11:02:31.073Z,50.33
2019-02-05T11:04:32.689Z,50.32
2019-02-05T11:06:34.296Z,50.42
2019-02-05T11:08:35.920Z,50.49
2019-02-05T11:10:37.567Z,50.54
2019-02-05T11:12:39.186Z,50.60
2019-02-05T11:14:40.817Z,50.65
2019-02-05T11:16:42.421Z,50.68
2019-02-05T11:18:44.038Z,50.72
2019-02-05T11:20:45.640Z,50.71
2019-02-05T11:22:47.267Z,50.75
2019-02-05T11:24:48.992Z,51.05
2019-02-05T11:26:50.585Z,51.00
2019-02-05T11:28:52.175Z,52.37
2019-02-05T11:30:53.772Z,50.64
2019-02-05T11:32:55.383Z,50.31
2019-02-05T11:34:57.003Z,49.88
2019-02-05T11:36:58.664Z,48.97
2019-02-05T11:39:00.313Z,48.09
2019-02-05T11:41:01.924Z,47.41
2019-02-05T11:43:03.572Z,47.22
2019-02-05T11:45:05.198Z,47.14
2019-02-05T11:47:06.810Z,46.69
2019-02-05T11:49:08.456Z,46.70
2019-02-05T11:51:10.092Z,46.56
2019-02-05T11:53:11.754Z,46.93
2019-02-05T11:55:13.421Z,46.53
2019-02-05T11:57:15.083Z,46.46
2019-02-05T11:59:16.843Z,46.08
2019-02-05T12:01:18.596Z,46.25
2019-02-05T12:03:20.239Z,46.29
2019-02-05T12:05:21.872Z,47.01
2019-02-05T12:07:23.496Z,46.70
2019-02-05T12:09:25.124Z,46.92
2019-02-05T12:11:26.735Z,46.75
2019-02-05T12:13:28.367Z,47.24
2019-02-05T12:15:30.024Z,47.42
2019-02-05T12:17:31.641Z,47.50
2019-02-05T12:19:33.265Z,48.00
2019-02-05T12:21:34.935Z,48.09
2019-02-05T12:23:36.560Z,46.48
2019-02-05T12:25:38.194Z,46.59
2019-02-05T12:27:39.845Z,47.87
2019-02-05T12:29:41.449Z,47.25
2019-02-05T12:31:43.058Z,47.09
2019-02-05T12:33:44.748Z,47.08
2019-02-05T12:35:46.423Z,47.19
2019-02-05T12:37:48.171Z,47.53
2019-02-05T12:39:49.835Z,47.55
2019-02-05T12:41:51.460Z,47.53
2019-02-05T12:43:53.115Z,47.64
2019-02-05T12:45:54.742Z,47.72
2019-02-05T12:47:56.391Z,47.75
2019-02-05T12:49:57.984Z,47.68
2019-02-05T12:51:59.616Z,47.67
2019-02-05T12:54:01.239Z,48.29
2019-02-05T12:56:02.934Z,48.73
2019-02-05T12:58:04.531Z,48.87
2019-02-05T13:00:06.153Z,48.98
2019-02-05T13:02:07.753Z,49.20
2019-02-05T13:04:09.431Z,49.42
2019-02-05T13:06:11.059Z,49.50
2019-02-05T13:08:12.698Z,49.73
2019-02-05T13:10:14.284Z,49.74
2019-02-05T13:12:15.877Z,49.85
2019-02-05T13:14:18.172Z,49.87
2019-02-05T13:16:19.772Z,49.79
2019-02-05T13:18:21.398Z,50.03
2019-02-05T13:20:22.989Z,50.03
2019-02-05T13:22:24.886Z,50.08
2019-02-05T13:24:26.499Z,50.15
2019-02-05T13:26:28.105Z,50.31
2019-02-05T13:28:29.713Z,50.19
2019-02-05T13:30:31.409Z,50.47
2019-02-05T13:32:33.012Z,50.43
2019-02-05T13:34:34.631Z,50.40
2019-02-05T13:36:36.287Z,50.49
2019-02-05T13:38:37.894Z,50.50
2019-02-05T13:40:39.487Z,50.38
2019-02-05T13:42:41.120Z,50.68
2019-02-05T13:44:42.729Z,50.63
2019-02-05T13:46:44.362Z,50.65
2019-02-05T13:48:46.014Z,50.58
2019-02-05T13:50:47.623Z,50.64
2019-02-05T13:52:50.573Z,50.73
2019-02-05T13:54:52.221Z,50.63
2019-02-05T13:56:53.964Z,50.76
2019-02-05T13:58:55.760Z,50.78
2019-02-05T14:00:57.520Z,50.59
2019-02-05T14:02:59.169Z,50.70
2019-02-05T14:05:00.866Z,50.55
2019-02-05T14:07:02.498Z,50.71
2019-02-05T14:09:10.692Z,50.66
2019-02-05T14:11:05.782Z,50.43
2019-02-05T14:13:07.389Z,50.64
2019-02-05T14:15:08.991Z,50.32
2019-02-05T14:17:10.612Z,49.69
2019-02-05T14:19:12.326Z,49.51
2019-02-05T14:21:13.909Z,49.62
2019-02-05T14:23:15.532Z,49.89
2019-02-05T14:25:17.172Z,49.96
2019-02-05T14:27:18.809Z,50.08
2019-02-05T14:29:20.427Z,50.09
2019-02-05T14:31:31.143Z,50.32
2019-02-05T14:33:23.687Z,50.48
2019-02-05T14:35:25.303Z,50.19
2019-02-05T14:37:26.910Z,50.37
2019-02-05T14:39:28.575Z,50.24
2019-02-05T14:41:30.164Z,50.26
2019-02-05T14:43:31.779Z,50.13
2019-02-05T14:45:33.425Z,49.96
2019-02-05T14:47:35.073Z,49.55
2019-02-05T14:49:36.686Z,49.53
2019-02-05T14:51:38.312Z,49.85
2019-02-05T14:53:39.917Z,49.38
2019-02-05T14:55:41.539Z,49.59
2019-02-05T14:57:43.141Z,49.14
2019-02-05T14:59:44.775Z,49.35
2019-02-05T15:01:46.463Z,49.50
2019-02-05T15:03:48.065Z,48.61
2019-02-05T15:05:49.661Z,48.12
2019-02-05T15:07:51.301Z,48.23
2019-02-05T15:09:52.929Z,49.12
2019-02-05T15:11:54.552Z,48.81
2019-02-05T15:13:56.251Z,48.70
2019-02-05T15:15:58.596Z,49.65
2019-02-05T15:18:00.188Z,48.98
2019-02-05T15:20:01.788Z,49.38
2019-02-05T15:22:03.403Z,49.35
2019-02-05T15:24:05.079Z,48.67
2019-02-05T15:26:06.693Z,48.76
2019-02-05T15:28:08.309Z,49.87
2019-02-05T15:30:09.928Z,49.97
2019-02-05T15:32:11.543Z,49.61
2019-02-05T15:34:13.214Z,48.85
2019-02-05T15:36:16.181Z,50.67
2019-02-05T15:38:17.804Z,49.37
2019-02-05T15:40:19.445Z,48.36
2019-02-05T15:42:21.055Z,49.05
2019-02-05T15:44:22.833Z,48.81
2019-02-05T15:46:24.674Z,48.97
2019-02-05T15:48:26.351Z,50.33
2019-02-05T15:50:28.796Z,49.27
2019-02-05T15:52:30.531Z,49.60
2019-02-05T15:54:32.164Z,48.82
2019-02-05T15:56:33.806Z,49.80
2019-02-05T15:58:35.606Z,49.94
2019-02-05T16:00:37.277Z,48.53
2019-02-05T16:02:38.881Z,49.12
2019-02-05T16:04:40.507Z,49.24
2019-02-05T16:06:42.188Z,49.55
2019-02-05T16:08:44.040Z,49.90
2019-02-05T16:10:45.658Z,50.25
2019-02-05T16:12:47.310Z,50.47
2019-02-05T16:14:48.978Z,50.08
2019-02-05T16:16:50.586Z,50.44
2019-02-05T16:18:53.273Z,50.53
2019-02-05T16:20:53.917Z,50.44
2019-02-05T16:22:55.529Z,49.92
2019-02-05T16:24:57.158Z,48.78
2019-02-05T16:26:58.759Z,50.48
2019-02-05T16:29:00.351Z,50.83
2019-02-05T16:31:01.983Z,50.94
2019-02-05T16:33:03.591Z,50.64
2019-02-05T16:35:05.203Z,50.81
2019-02-05T16:37:06.847Z,50.92
2019-02-05T16:39:08.518Z,50.71
2019-02-05T16:41:10.116Z,50.79
2019-02-05T16:43:11.768Z,54.64
2019-02-05T16:45:13.373Z,51.53
2019-02-05T16:47:15.051Z,51.00
2019-02-05T16:49:16.645Z,50.97
2019-02-05T16:51:18.255Z,49.05
2019-02-05T16:53:19.891Z,51.86
2019-02-05T16:55:21.508Z,49.95
2019-02-05T16:57:23.175Z,49.72
2019-02-05T16:59:24.791Z,49.46
2019-02-05T17:01:26.408Z,49.53
2019-02-05T17:03:28.010Z,49.54
2019-02-05T17:05:29.615Z,50.24
2019-02-05T17:07:31.210Z,49.28
2019-02-05T17:09:32.824Z,48.43
2019-02-05T17:11:34.460Z,49.05
2019-02-05T17:13:36.050Z,48.73
2019-02-05T17:15:37.751Z,48.92
2019-02-05T17:17:39.374Z,49.16
2019-02-05T17:19:41.025Z,49.82
2019-02-05T17:21:42.643Z,49.51
2019-02-05T17:23:44.298Z,49.17
2019-02-05T17:25:45.930Z,49.47
2019-02-05T17:27:47.549Z,49.97
2019-02-05T17:29:50.181Z,51.72
2019-02-05T17:31:50.832Z,49.85
2019-02-05T17:33:52.471Z,49.65
2019-02-05T17:35:54.102Z,49.62
2019-02-05T17:37:55.776Z,50.25
2019-02-05T17:39:57.697Z,49.46
2019-02-05T17:41:59.336Z,49.41
2019-02-05T17:44:01.114Z,49.36
2019-02-05T17:46:05.680Z,49.85
2019-02-05T17:48:04.405Z,49.14
2019-02-05T17:50:06.085Z,48.11
2019-02-05T17:52:07.704Z,49.33
2019-02-05T17:54:09.305Z,44.07
2019-02-05T17:56:10.962Z,44.41
2019-02-05T17:58:12.567Z,41.90
2019-02-05T18:00:14.173Z,41.13
2019-02-05T18:02:15.786Z,43.69
2019-02-05T18:04:17.390Z,43.77
2019-02-05T18:06:19.042Z,43.98
2019-02-05T18:08:20.693Z,44.19
2019-02-05T18:10:22.386Z,45.13
2019-02-05T18:12:23.991Z,45.27
2019-02-05T18:14:25.661Z,45.61
2019-02-05T18:16:27.283Z,45.66
2019-02-05T18:18:28.911Z,46.10
2019-02-05T18:20:30.767Z,45.78
2019-02-05T18:22:32.413Z,45.96
2019-02-05T18:24:34.017Z,46.02
2019-02-05T18:26:35.659Z,46.05
2019-02-05T18:28:37.308Z,46.10
2019-02-05T18:30:38.942Z,46.10
2019-02-05T18:32:40.552Z,46.05
2019-02-05T18:34:42.153Z,46.29
2019-02-05T18:36:43.856Z,46.18
2019-02-05T18:38:45.452Z,46.24
2019-02-05T18:40:47.112Z,46.14
2019-02-05T18:42:48.732Z,46.66
2019-02-05T18:44:50.344Z,46.34
2019-02-05T18:46:51.992Z,46.11
2019-02-05T18:49:04.689Z,44.99
2019-02-05T18:50:56.402Z,45.87
2019-02-05T18:52:58.050Z,45.77
2019-02-05T18:54:59.649Z,46.20
2019-02-05T18:57:01.240Z,46.66
2019-02-05T18:59:02.892Z,46.93
2019-02-05T19:01:04.573Z,47.08
2019-02-05T19:03:14.963Z,46.88
2019-02-05T19:05:07.873Z,46.80
2019-02-05T19:07:09.470Z,47.06
2019-02-05T19:09:11.082Z,47.00
2019-02-05T19:11:12.842Z,46.96
2019-02-05T19:13:14.398Z,47.48
2019-02-05T19:15:16.050Z,47.55
2019-02-05T19:17:17.672Z,47.62
2019-02-05T19:19:19.275Z,47.86
2019-02-05T19:21:20.872Z,48.04
2019-02-05T19:23:22.583Z,48.10
2019-02-05T19:25:26.687Z,48.07
2019-02-05T19:27:28.306Z,48.29
2019-02-05T19:29:29.961Z,48.40
2019-02-05T19:31:31.617Z,48.45
2019-02-05T19:33:33.208Z,48.79
2019-02-05T19:35:34.828Z,48.98
2019-02-05T19:37:36.423Z,49.01
2019-02-05T19:39:38.027Z,49.22
2019-02-05T19:41:39.644Z,49.07
2019-02-05T19:43:41.300Z,49.02
2019-02-05T19:45:49.058Z,48.85
2019-02-05T19:47:51.585Z,48.87
2019-02-05T19:49:53.157Z,48.76
2019-02-05T19:51:54.790Z,48.93
2019-02-05T19:53:56.477Z,47.21
2019-02-05T19:55:58.124Z,47.76
2019-02-05T19:57:59.746Z,47.85
2019-02-05T20:00:01.833Z,48.15
2019-02-05T20:02:03.434Z,47.86
2019-02-05T20:04:05.053Z,47.89
2019-02-05T20:06:06.722Z,47.62
2019-02-05T20:08:08.348Z,47.65
2019-02-05T20:10:09.986Z,47.92
2019-02-05T20:12:11.590Z,47.68
2019-02-05T20:14:13.190Z,48.36
2019-02-05T20:16:14.823Z,48.39
2019-02-05T20:18:16.422Z,48.70
2019-02-05T20:20:18.924Z,49.00
2019-02-05T20:22:20.632Z,49.37
2019-02-05T20:24:22.239Z,49.46
2019-02-05T20:26:23.852Z,49.79
2019-02-05T20:28:25.515Z,49.37
2019-02-05T20:30:27.189Z,49.04
2019-02-05T20:32:28.798Z,49.01
2019-02-05T20:34:30.447Z,49.05
2019-02-05T20:36:32.055Z,49.21
2019-02-05T20:38:33.755Z,49.79
2019-02-05T20:40:35.388Z,49.67
2019-02-05T20:42:37.004Z,49.73
2019-02-05T20:44:38.657Z,49.85
2019-02-05T20:46:40.373Z,49.41
2019-02-05T20:48:42.000Z,49.63
2019-02-05T20:50:43.665Z,49.62
2019-02-05T20:52:45.253Z,49.59
2019-02-05T20:54:46.919Z,49.86
2019-02-05T20:56:48.518Z,49.88
2019-02-05T20:58:50.136Z,50.13
2019-02-05T21:00:51.745Z,50.23
2019-02-05T21:02:53.380Z,50.24
2019-02-05T21:04:55.039Z,50.10
2019-02-05T21:06:59.604Z,50.07
2019-02-05T21:08:58.339Z,50.15
2019-02-05T21:11:00.039Z,50.20
2019-02-05T21:13:01.631Z,49.94
2019-02-05T21:15:03.243Z,50.39
2019-02-05T21:17:04.865Z,50.41
2019-02-05T21:19:06.554Z,49.08
2019-02-05T21:21:08.183Z,48.44
2019-02-05T21:23:09.884Z,49.29
2019-02-05T21:25:11.495Z,49.13
2019-02-05T21:27:13.134Z,49.59
2019-02-05T21:29:14.790Z,49.26
2019-02-05T21:31:16.407Z,49.80
2019-02-05T21:33:19.020Z,49.64
2019-02-05T21:35:19.683Z,49.67
2019-02-05T21:37:21.295Z,50.21
2019-02-05T21:39:22.901Z,50.32
2019-02-05T21:41:24.516Z,50.88
2019-02-05T21:43:26.150Z,51.13
2019-02-05T21:45:27.764Z,51.45
2019-02-05T21:47:29.402Z,51.34
2019-02-05T21:49:31.733Z,51.51
2019-02-05T21:51:40.873Z,51.53
2019-02-05T21:53:35.062Z,51.61
2019-02-05T21:55:37.289Z,51.82
2019-02-05T21:57:38.912Z,51.86
2019-02-05T21:59:40.504Z,51.91
2019-02-05T22:01:42.113Z,52.13
2019-02-05T22:03:43.805Z,52.18
2019-02-05T22:05:45.466Z,52.24
2019-02-05T22:07:47.109Z,52.29
2019-02-05T22:09:48.805Z,52.25
2019-02-05T22:11:50.410Z,52.25
2019-02-05T22:13:52.043Z,52.22
2019-02-05T22:15:53.657Z,52.28
2019-02-05T22:17:55.292Z,52.40
2019-02-05T22:19:56.940Z,52.40
2019-02-05T22:21:58.584Z,52.46
2019-02-05T22:24:00.242Z,52.46
2019-02-05T22:26:01.862Z,52.46
2019-02-05T22:28:03.511Z,52.47
2019-02-05T22:30:05.322Z,52.51
2019-02-05T22:32:06.973Z,52.65
2019-02-05T22:34:08.600Z,52.57
2019-02-05T22:36:10.232Z,52.53
2019-02-05T22:38:11.866Z,52.63
2019-02-05T22:40:13.493Z,52.65
2019-02-05T22:42:15.102Z,52.68
2019-02-05T22:44:16.791Z,52.68
2019-02-05T22:46:18.447Z,52.81
2019-02-05T22:48:20.048Z,52.85
2019-02-05T22:50:21.662Z,52.76
2019-02-05T22:52:25.848Z,52.82
2019-02-05T22:54:24.967Z,52.87
2019-02-05T22:56:26.598Z,52.92
2019-02-05T22:58:28.260Z,52.88
2019-02-05T23:00:29.863Z,52.99
2019-02-05T23:02:31.501Z,52.92
2019-02-05T23:04:33.155Z,52.95
2019-02-05T23:06:34.749Z,53.08
2019-02-05T23:08:36.380Z,53.17
2019-02-05T23:10:37.982Z,53.30
2019-02-05T23:12:39.604Z,53.41
2019-02-05T23:14:41.221Z,53.37
2019-02-05T23:16:42.839Z,53.04
2019-02-05T23:18:44.478Z,53.11
2019-02-05T23:20:46.095Z,52.96
2019-02-05T23:22:47.702Z,52.98
2019-02-05T23:24:49.345Z,53.02
2019-02-05T23:26:50.945Z,52.97
2019-02-05T23:28:52.549Z,53.06
2019-02-05T23:30:54.215Z,53.04
2019-02-05T23:32:55.835Z,53.05
2019-02-05T23:35:02.351Z,52.99
2019-02-05T23:36:59.154Z,52.59
2019-02-05T23:39:00.767Z,51.82
2019-02-05T23:41:02.373Z,51.67
2019-02-05T23:43:04.059Z,51.83
2019-02-05T23:45:06.314Z,51.78
2019-02-05T23:47:07.936Z,52.01
2019-02-05T23:49:09.546Z,52.09
2019-02-05T23:51:11.163Z,52.22
2019-02-05T23:53:12.772Z,52.30
2019-02-05T23:55:14.418Z,52.34
2019-02-05T23:57:16.053Z,52.53
2019-02-05T23:59:17.693Z,52.61
